Time;durP1;ratioP1;P1;durP2;ratioP2;P2;SDS_P1;SDS_P2;PMS_P1;PMS_P2;Temp;Humidity;BMP_temperature;BMP_pressure;BME280_temperature;BME280_humidity;BME280_pressure;Samples;Min_cycle;Max_cycle;Signal;HPM_P1;HPM_P2
2023/03/12 00:01:45;;;;;;;;;;;-1.40;99.90;;;;;;5044583;28;19988;-69
2023/03/12 00:04:13;;;;;;;;;;;-1.50;99.90;;;;;;5044227;28;20280;-68
2023/03/12 00:06:40;;;;;;;;;;;-1.50;99.90;;;;;;5043305;28;19961;-68
2023/03/12 00:09:08;;;;;;;;;;;-1.50;99.90;;;;;;5044354;28;19983;-68
2023/03/12 00:11:34;;;;;;;;;;;-1.50;99.90;;;;;;5044121;28;19921;-68
2023/03/12 00:14:01;;;;;;;;;;;-1.50;99.90;;;;;;5044120;28;19921;-68
2023/03/12 00:16:28;;;;;;;;;;;-1.50;99.90;;;;;;5044036;28;19955;-68
2023/03/12 00:18:55;;;;;;;;;;;-1.50;99.90;;;;;;5044233;28;19925;-68
2023/03/12 00:21:23;;;;;;;;;;;-1.60;99.90;;;;;;5044105;28;20049;-69
2023/03/12 00:23:51;;;;;;;;;;;-1.60;99.90;;;;;;5043980;28;19921;-68
2023/03/12 00:26:18;;;;;;;;;;;-1.60;99.90;;;;;;5043381;28;19987;-68
2023/03/12 00:28:47;;;;;;;;;;;-1.60;99.90;;;;;;5043675;28;20393;-68
2023/03/12 00:31:15;;;;;;;;;;;-1.60;99.90;;;;;;5041799;28;19921;-68
2023/03/12 00:33:42;;;;;;;;;;;-1.60;99.90;;;;;;5043572;28;19956;-67
2023/03/12 00:36:09;;;;;;;;;;;-1.60;99.90;;;;;;5043917;28;19967;-68
2023/03/12 00:38:37;;;;;;;;;;;-1.60;99.90;;;;;;5043999;28;20009;-68
2023/03/12 00:41:03;;;;;;;;;;;-1.70;99.90;;;;;;5043939;28;19952;-68
2023/03/12 00:43:30;;;;;;;;;;;-1.70;99.90;;;;;;5043738;28;20003;-68
2023/03/12 00:45:57;;;;;;;;;;;-1.70;99.90;;;;;;5043382;28;19971;-67
2023/03/12 00:48:24;;;;;;;;;;;-1.70;99.90;;;;;;5043110;28;19921;-68
2023/03/12 00:50:50;;;;;;;;;;;-1.70;99.90;;;;;;5043667;28;20004;-68
2023/03/12 00:53:17;;;;;;;;;;;-1.70;99.90;;;;;;5043888;28;19957;-68
2023/03/12 00:55:45;;;;;;;;;;;-1.70;99.90;;;;;;5043341;28;19959;-68
2023/03/12 00:58:11;;;;;;;;;;;-1.70;99.90;;;;;;5043231;28;20251;-68
2023/03/12 01:00:38;;;;;;;;;;;-1.70;99.90;;;;;;5043685;28;19927;-67
2023/03/12 01:03:06;;;;;;;;;;;-1.70;99.90;;;;;;5042735;28;19992;-67
2023/03/12 01:05:36;;;;;;;;;;;-1.70;99.90;;;;;;5044463;28;19921;-68
2023/03/12 01:08:03;;;;;;;;;;;-1.70;99.90;;;;;;5044844;28;19937;-68
2023/03/12 01:10:30;;;;;;;;;;;-1.70;99.90;;;;;;5047033;28;19952;-67
2023/03/12 01:12:58;;;;;;;;;;;-1.70;99.90;;;;;;5047576;28;19921;-67
2023/03/12 01:15:25;;;;;;;;;;;-1.70;99.90;;;;;;5047433;28;19927;-67
2023/03/12 01:17:52;;;;;;;;;;;-1.80;99.90;;;;;;5046699;28;19927;-68
2023/03/12 01:20:19;;;;;;;;;;;-1.80;99.90;;;;;;5047457;28;19953;-68
2023/03/12 01:22:45;;;;;;;;;;;-1.80;99.90;;;;;;5047240;28;19955;-67
2023/03/12 01:25:12;;;;;;;;;;;-1.80;99.90;;;;;;5047072;28;19995;-68
2023/03/12 01:27:39;;;;;;;;;;;-1.90;99.90;;;;;;5046111;28;20279;-67
2023/03/12 01:30:08;;;;;;;;;;;-1.10;99.90;;;;;;5046835;28;19988;-68
2023/03/12 01:32:34;;;;;;;;;;;-1.90;99.90;;;;;;5047056;28;19959;-68
2023/03/12 01:35:01;;;;;;;;;;;-2.00;99.90;;;;;;5046983;28;19928;-68
2023/03/12 01:37:28;;;;;;;;;;;-2.00;99.90;;;;;;5046568;28;19956;-68
2023/03/12 01:39:54;;;;;;;;;;;-2.00;99.90;;;;;;5047153;28;19953;-68
2023/03/12 01:42:21;;;;;;;;;;;-2.00;99.90;;;;;;5046818;28;19948;-68
2023/03/12 01:44:52;;;;;;;;;;;-2.10;99.90;;;;;;5047001;28;20251;-68
2023/03/12 01:47:20;;;;;;;;;;;-2.10;99.90;;;;;;5046304;28;19976;-71
2023/03/12 01:49:47;;;;;;;;;;;-2.10;99.90;;;;;;5046946;28;19980;-67
2023/03/12 01:52:14;;;;;;;;;;;-2.10;99.90;;;;;;5046781;28;19921;-68
2023/03/12 01:54:42;;;;;;;;;;;-2.10;99.90;;;;;;5046747;28;19995;-68
2023/03/12 01:57:11;;;;;;;;;;;-2.10;99.90;;;;;;5046269;28;19921;-68
2023/03/12 01:59:41;;;;;;;;;;;-2.10;99.90;;;;;;5046547;28;19921;-69
2023/03/12 02:02:08;;;;;;;;;;;-2.10;99.90;;;;;;5046738;28;19949;-68
2023/03/12 02:04:37;;;;;;;;;;;-2.10;99.90;;;;;;5046840;28;19929;-68
2023/03/12 02:07:05;;;;;;;;;;;-2.10;99.90;;;;;;5046316;28;20148;-69
2023/03/12 02:09:32;;;;;;;;;;;-2.10;99.90;;;;;;5046688;28;19984;-68
2023/03/12 02:11:59;;;;;;;;;;;-2.10;99.90;;;;;;5046235;28;19927;-67
2023/03/12 02:14:25;;;;;;;;;;;-2.10;99.90;;;;;;5046336;28;19952;-68
2023/03/12 02:16:53;;;;;;;;;;;-2.10;99.90;;;;;;5045275;28;19921;-69
2023/03/12 02:19:23;;;;;;;;;;;-2.10;99.90;;;;;;5046373;28;19988;-69
2023/03/12 02:21:51;;;;;;;;;;;-2.10;99.90;;;;;;5045312;28;20112;-69
2023/03/12 02:24:22;;;;;;;;;;;-2.10;99.90;;;;;;5046163;28;19921;-68
2023/03/12 02:26:51;;;;;;;;;;;-2.10;99.90;;;;;;5045546;28;19949;-68
2023/03/12 02:29:17;;;;;;;;;;;-2.10;99.90;;;;;;5046108;28;20145;-66
2023/03/12 02:31:45;;;;;;;;;;;-2.10;99.90;;;;;;5046131;28;19988;-68
2023/03/12 02:34:12;;;;;;;;;;;-2.10;99.90;;;;;;5045782;28;19921;-67
2023/03/12 02:36:39;;;;;;;;;;;-2.10;99.90;;;;;;5042747;28;19935;-68
2023/03/12 02:39:06;;;;;;;;;;;-2.10;99.90;;;;;;5046185;28;19921;-68
2023/03/12 02:41:34;;;;;;;;;;;-2.10;99.90;;;;;;5045774;28;19921;-69
2023/03/12 02:44:03;;;;;;;;;;;-2.10;99.90;;;;;;5045768;28;20286;-69
2023/03/12 02:46:32;;;;;;;;;;;-2.00;99.90;;;;;;5045231;28;19921;-69
2023/03/12 02:48:59;;;;;;;;;;;-2.00;99.90;;;;;;5045752;28;19984;-68
2023/03/12 02:51:25;;;;;;;;;;;-2.00;99.90;;;;;;5045875;28;19921;-68
2023/03/12 02:53:53;;;;;;;;;;;-2.00;99.90;;;;;;5045671;28;19964;-67
2023/03/12 02:56:21;;;;;;;;;;;-1.90;99.90;;;;;;5044403;28;19929;-68
2023/03/12 02:58:47;;;;;;;;;;;-2.00;99.90;;;;;;5045883;28;19925;-68
2023/03/12 03:01:15;;;;;;;;;;;-2.00;99.90;;;;;;5045402;28;19920;-69
2023/03/12 03:03:43;;;;;;;;;;;-2.00;99.90;;;;;;5043069;28;19984;-69
2023/03/12 03:06:10;;;;;;;;;;;-2.00;99.90;;;;;;5045088;28;19952;-68
2023/03/12 03:08:36;;;;;;;;;;;-1.90;99.90;;;;;;5045200;28;19980;-67
2023/03/12 03:11:03;;;;;;;;;;;-1.90;99.90;;;;;;5045405;28;19921;-68
2023/03/12 03:13:30;;;;;;;;;;;-1.90;99.90;;;;;;5045205;28;19920;-68
2023/03/12 03:15:58;;;;;;;;;;;-1.90;99.90;;;;;;5044771;28;20256;-69
2023/03/12 03:18:26;;;;;;;;;;;-1.90;99.90;;;;;;5044773;28;19965;-67
2023/03/12 03:20:56;;;;;;;;;;;-1.90;99.90;;;;;;5027340;28;19993;-68
2023/03/12 03:23:23;;;;;;;;;;;-1.80;99.90;;;;;;5025254;28;19988;-69
2023/03/12 03:25:51;;;;;;;;;;;-1.80;99.90;;;;;;5042046;28;19921;-68
2023/03/12 03:28:18;;;;;;;;;;;-1.80;99.90;;;;;;5039338;28;19928;-68
2023/03/12 03:30:44;;;;;;;;;;;-1.80;99.90;;;;;;5024903;28;19980;-68
2023/03/12 03:33:11;;;;;;;;;;;-1.80;99.90;;;;;;5024850;28;19985;-66
2023/03/12 03:35:39;;;;;;;;;;;-1.80;99.90;;;;;;5024676;28;19992;-67
2023/03/12 03:38:07;;;;;;;;;;;-1.70;99.90;;;;;;5023380;28;19957;-67
2023/03/12 03:40:33;;;;;;;;;;;-1.70;99.90;;;;;;5044816;28;19921;-67
2023/03/12 03:43:00;;;;;;;;;;;-1.70;99.90;;;;;;5044585;28;19928;-68
2023/03/12 03:45:27;;;;;;;;;;;-1.70;99.90;;;;;;5042669;28;19927;-68
2023/03/12 03:47:53;;;;;;;;;;;-1.70;99.90;;;;;;5024587;28;19980;-68
2023/03/12 03:50:20;;;;;;;;;;;-1.60;99.90;;;;;;5028955;28;20256;-68
2023/03/12 03:52:48;;;;;;;;;;;-1.60;99.90;;;;;;5044320;28;19957;-68
2023/03/12 03:55:14;;;;;;;;;;;-1.60;99.90;;;;;;5044048;28;19921;-68
2023/03/12 03:57:41;;;;;;;;;;;-1.60;99.90;;;;;;5043498;28;19921;-68
2023/03/12 04:00:11;;;;;;;;;;;-1.60;99.90;;;;;;5044092;28;19980;-68
2023/03/12 04:02:38;;;;;;;;;;;-1.60;99.90;;;;;;5043924;28;19921;-67
2023/03/12 04:05:05;;;;;;;;;;;-1.50;99.90;;;;;;5044116;28;19952;-68
2023/03/12 04:07:32;;;;;;;;;;;-1.50;99.90;;;;;;5043750;28;19947;-68
2023/03/12 04:10:00;;;;;;;;;;;-1.50;99.90;;;;;;5044425;28;19928;-68
2023/03/12 04:12:27;;;;;;;;;;;-1.50;99.90;;;;;;5030234;28;19948;-69
2023/03/12 04:14:54;;;;;;;;;;;-1.40;99.90;;;;;;5024530;28;19921;-68
2023/03/12 04:17:21;;;;;;;;;;;-1.40;99.90;;;;;;5023901;28;19988;-68
2023/03/12 04:19:47;;;;;;;;;;;-1.40;99.90;;;;;;5024217;28;20159;-68
2023/03/12 04:22:14;;;;;;;;;;;-1.40;99.90;;;;;;5024279;28;19949;-68
2023/03/12 04:24:41;;;;;;;;;;;-1.40;99.90;;;;;;5023999;28;19988;-68
2023/03/12 04:27:09;;;;;;;;;;;-1.30;99.90;;;;;;5023311;28;19992;-68
2023/03/12 04:29:37;;;;;;;;;;;-1.40;99.90;;;;;;5024177;28;19953;-68
2023/03/12 04:32:05;;;;;;;;;;;-1.30;99.90;;;;;;5023692;28;19921;-68
2023/03/12 04:34:31;;;;;;;;;;;-1.40;99.90;;;;;;5023804;28;19921;-69
2023/03/12 04:36:58;;;;;;;;;;;-1.40;99.90;;;;;;5022726;28;19997;-68
2023/03/12 04:39:25;;;;;;;;;;;-1.30;99.90;;;;;;5023572;28;19941;-68
2023/03/12 04:41:51;;;;;;;;;;;-1.30;99.90;;;;;;5023869;28;20132;-69
2023/03/12 04:44:19;;;;;;;;;;;-1.30;99.90;;;;;;5042492;28;19984;-70
2023/03/12 04:46:46;;;;;;;;;;;-1.40;99.90;;;;;;5042674;28;19992;-68
2023/03/12 04:49:12;;;;;;;;;;;-1.30;99.90;;;;;;5044082;28;19987;-68
2023/03/12 04:51:39;;;;;;;;;;;-1.30;99.90;;;;;;5043667;28;19955;-68
2023/03/12 04:54:06;;;;;;;;;;;-1.30;99.90;;;;;;5043648;28;20173;-68
2023/03/12 04:56:32;;;;;;;;;;;-1.30;99.90;;;;;;5042568;28;20232;-67
2023/03/12 04:58:59;;;;;;;;;;;-1.30;99.90;;;;;;5043033;28;19956;-68
2023/03/12 05:01:28;;;;;;;;;;;-1.20;99.90;;;;;;5043402;28;19949;-67
2023/03/12 05:03:56;;;;;;;;;;;-1.30;99.90;;;;;;5040518;28;19988;-68
2023/03/12 05:06:23;;;;;;;;;;;-1.30;99.90;;;;;;5042981;28;19988;-68
2023/03/12 05:08:50;;;;;;;;;;;-1.20;99.90;;;;;;5043292;28;19988;-68
2023/03/12 05:11:17;;;;;;;;;;;-1.30;99.90;;;;;;5043191;28;19977;-67
2023/03/12 05:13:43;;;;;;;;;;;-1.30;99.90;;;;;;5042653;28;19920;-68
2023/03/12 05:16:10;;;;;;;;;;;-1.30;99.90;;;;;;5042826;28;20180;-68
2023/03/12 05:18:38;;;;;;;;;;;-1.20;99.90;;;;;;5043481;28;19921;-68
2023/03/12 05:21:06;;;;;;;;;;;-1.20;99.90;;;;;;5043165;28;19936;-68
2023/03/12 05:23:33;;;;;;;;;;;-1.20;99.90;;;;;;5043373;28;19984;-67
2023/03/12 05:25:59;;;;;;;;;;;-1.20;99.90;;;;;;5043054;28;19921;-67
2023/03/12 05:28:27;;;;;;;;;;;-1.10;99.90;;;;;;5043119;28;20480;-68
2023/03/12 05:30:54;;;;;;;;;;;-1.10;99.90;;;;;;5043154;28;19921;-69
2023/03/12 05:33:21;;;;;;;;;;;-1.10;99.90;;;;;;5043328;28;19960;-68
2023/03/12 05:35:49;;;;;;;;;;;-1.10;99.90;;;;;;5042613;28;19992;-68
2023/03/12 05:38:16;;;;;;;;;;;-1.10;99.90;;;;;;5042759;28;20209;-68
2023/03/12 05:40:43;;;;;;;;;;;-1.10;99.90;;;;;;5043108;28;19980;-71
2023/03/12 05:43:09;;;;;;;;;;;-1.10;99.90;;;;;;5043197;28;19928;-68
2023/03/12 05:45:36;;;;;;;;;;;-1.10;99.90;;;;;;5043068;28;20149;-68
2023/03/12 05:48:02;;;;;;;;;;;-1.10;99.90;;;;;;5042976;28;19944;-68
2023/03/12 05:50:29;;;;;;;;;;;-1.10;99.90;;;;;;5043232;28;19921;-68
2023/03/12 05:52:57;;;;;;;;;;;-1.00;99.90;;;;;;5043085;28;19928;-68
2023/03/12 05:55:24;;;;;;;;;;;-0.60;99.90;;;;;;5043965;28;19943;-68
2023/03/12 05:57:51;;;;;;;;;;;-1.00;99.90;;;;;;5046134;28;20177;-69
2023/03/12 06:00:18;;;;;;;;;;;-1.00;99.90;;;;;;5046560;28;19928;-67
2023/03/12 06:02:44;;;;;;;;;;;-0.90;99.90;;;;;;5044693;28;19956;-68
2023/03/12 06:05:11;;;;;;;;;;;-0.90;99.90;;;;;;5045486;28;19992;-68
2023/03/12 06:07:38;;;;;;;;;;;-0.90;99.90;;;;;;5045887;28;20279;-68
2023/03/12 06:10:07;;;;;;;;;;;-0.80;99.90;;;;;;5046297;28;19963;-68
2023/03/12 06:12:33;;;;;;;;;;;-0.80;99.90;;;;;;5046356;28;19974;-68
2023/03/12 06:15:00;;;;;;;;;;;-0.80;99.90;;;;;;5046049;28;20248;-67
2023/03/12 06:17:28;;;;;;;;;;;-0.80;99.90;;;;;;5045464;28;19997;-68
2023/03/12 06:19:54;;;;;;;;;;;-0.80;99.90;;;;;;5046396;28;20112;-67
2023/03/12 06:22:21;;;;;;;;;;;-0.80;99.90;;;;;;5045783;28;19948;-67
2023/03/12 06:24:48;;;;;;;;;;;-0.70;99.90;;;;;;5046303;28;19944;-67
2023/03/12 06:27:16;;;;;;;;;;;-0.70;99.90;;;;;;5045457;28;19928;-68
2023/03/12 06:29:45;;;;;;;;;;;-0.60;99.90;;;;;;5045794;28;20227;-68
2023/03/12 06:32:11;;;;;;;;;;;-0.60;99.90;;;;;;5046152;28;19921;-66
2023/03/12 06:34:38;;;;;;;;;;;-0.60;99.90;;;;;;5045890;28;19992;-67
2023/03/12 06:37:05;;;;;;;;;;;-0.50;99.90;;;;;;5042016;28;19921;-68
2023/03/12 06:39:31;;;;;;;;;;;-0.50;99.90;;;;;;5046066;28;19921;-68
2023/03/12 06:41:58;;;;;;;;;;;-0.50;99.90;;;;;;5045942;28;19987;-68
2023/03/12 06:44:26;;;;;;;;;;;-0.50;99.90;;;;;;5045606;28;20251;-68
2023/03/12 06:46:53;;;;;;;;;;;-0.40;99.90;;;;;;5045127;28;19988;-69
2023/03/12 06:49:19;;;;;;;;;;;-0.40;99.90;;;;;;5037503;28;20094;-68
2023/03/12 06:51:46;;;;;;;;;;;-0.30;99.90;;;;;;5025225;28;20243;-68
2023/03/12 06:54:13;;;;;;;;;;;-0.30;99.90;;;;;;5025725;28;19964;-68
2023/03/12 06:56:39;;;;;;;;;;;-0.20;99.90;;;;;;5024825;28;19949;-68
2023/03/12 06:59:06;;;;;;;;;;;-0.20;99.90;;;;;;5025966;28;19988;-67
2023/03/12 07:01:34;;;;;;;;;;;-0.10;99.90;;;;;;5025653;28;19989;-68
2023/03/12 07:04:00;;;;;;;;;;;-0.10;99.90;;;;;;5025906;28;19988;-68
2023/03/12 07:06:27;;;;;;;;;;;0.00;99.90;;;;;;5024775;28;19989;-68
2023/03/12 07:08:54;;;;;;;;;;;0.10;99.90;;;;;;5025006;28;20177;-67
2023/03/12 07:11:20;;;;;;;;;;;0.10;99.90;;;;;;5025591;28;19921;-67
2023/03/12 07:13:47;;;;;;;;;;;0.20;99.90;;;;;;5042522;28;19956;-67
2023/03/12 07:16:14;;;;;;;;;;;1.00;99.90;;;;;;5044743;28;19921;-68
2023/03/12 07:18:42;;;;;;;;;;;0.40;99.90;;;;;;5045214;28;20171;-67
2023/03/12 07:21:08;;;;;;;;;;;0.40;99.90;;;;;;5045744;28;19928;-67
2023/03/12 07:23:35;;;;;;;;;;;0.50;99.90;;;;;;5038065;28;19921;-67
2023/03/12 07:26:04;;;;;;;;;;;0.60;99.90;;;;;;5046051;28;19975;-68
2023/03/12 07:28:31;;;;;;;;;;;0.60;99.90;;;;;;5046296;28;20173;-69
2023/03/12 07:31:01;;;;;;;;;;;0.70;99.90;;;;;;5045850;28;19944;-67
2023/03/12 07:33:28;;;;;;;;;;;0.70;99.90;;;;;;5045442;28;19988;-68
2023/03/12 07:35:56;;;;;;;;;;;0.80;99.90;;;;;;5044637;28;20180;-68
2023/03/12 07:38:23;;;;;;;;;;;0.80;99.90;;;;;;5043694;28;20232;-67
2023/03/12 07:40:53;;;;;;;;;;;0.80;99.90;;;;;;5044944;28;19952;-68
2023/03/12 07:43:20;;;;;;;;;;;0.90;99.90;;;;;;5044663;28;19921;-67
2023/03/12 07:45:46;;;;;;;;;;;0.90;99.90;;;;;;5044339;28;19922;-71
2023/03/12 07:48:13;;;;;;;;;;;1.00;99.90;;;;;;5044681;28;19972;-67
2023/03/12 07:50:40;;;;;;;;;;;1.00;99.90;;;;;;5044884;28;20117;-68
2023/03/12 07:53:10;;;;;;;;;;;1.10;99.90;;;;;;5041754;28;19921;-68
2023/03/12 07:55:36;;;;;;;;;;;1.10;99.90;;;;;;5044239;28;19927;-68
2023/03/12 07:58:03;;;;;;;;;;;1.20;99.90;;;;;;5044255;28;19921;-68
2023/03/12 08:00:30;;;;;;;;;;;1.30;99.90;;;;;;5036412;28;19988;-67
2023/03/12 08:02:57;;;;;;;;;;;1.40;99.90;;;;;;5024447;28;19989;-67
2023/03/12 08:05:24;;;;;;;;;;;1.40;99.90;;;;;;5024525;28;19931;-67
2023/03/12 08:07:51;;;;;;;;;;;1.50;99.90;;;;;;5040308;28;20097;-67
2023/03/12 08:10:19;;;;;;;;;;;1.50;99.90;;;;;;5044178;28;20152;-67
2023/03/12 08:12:46;;;;;;;;;;;1.60;99.90;;;;;;5044140;28;19921;-67
2023/03/12 08:15:12;;;;;;;;;;;1.60;99.90;;;;;;5044106;28;19967;-67
2023/03/12 08:17:39;;;;;;;;;;;1.70;99.90;;;;;;5043530;28;19921;-67
2023/03/12 08:20:08;;;;;;;;;;;1.80;99.90;;;;;;5043242;28;19980;-68
2023/03/12 08:22:35;;;;;;;;;;;1.80;99.90;;;;;;5043771;28;19956;-68
2023/03/12 08:25:01;;;;;;;;;;;1.90;99.90;;;;;;5044060;28;19975;-69
2023/03/12 08:27:29;;;;;;;;;;;2.00;99.90;;;;;;5043020;28;19993;-68
2023/03/12 08:29:56;;;;;;;;;;;2.10;99.90;;;;;;5040956;28;20168;-67
2023/03/12 08:32:23;;;;;;;;;;;2.10;99.90;;;;;;5038385;28;19980;-70
2023/03/12 08:34:49;;;;;;;;;;;2.20;99.90;;;;;;5023956;28;19932;-67
2023/03/12 08:37:16;;;;;;;;;;;2.20;99.90;;;;;;5024402;28;19989;-68
2023/03/12 08:39:43;;;;;;;;;;;2.20;99.90;;;;;;5023502;28;19921;-67
2023/03/12 08:42:10;;;;;;;;;;;2.30;99.90;;;;;;5025030;28;19922;-67
2023/03/12 08:44:39;;;;;;;;;;;2.30;99.90;;;;;;5021707;28;19957;-68
2023/03/12 08:47:05;;;;;;;;;;;2.30;99.90;;;;;;5023581;28;19992;-68
2023/03/12 08:49:32;;;;;;;;;;;2.30;99.90;;;;;;5023860;28;19993;-68
2023/03/12 08:51:58;;;;;;;;;;;2.40;99.90;;;;;;5023799;28;19921;-68
2023/03/12 08:54:25;;;;;;;;;;;2.40;99.90;;;;;;5023798;28;19928;-68
2023/03/12 08:56:52;;;;;;;;;;;2.40;99.90;;;;;;5023266;28;19928;-67
2023/03/12 08:59:21;;;;;;;;;;;2.50;99.90;;;;;;5024256;28;19984;-70
2023/03/12 09:01:49;;;;;;;;;;;2.60;99.90;;;;;;5023662;28;19922;-67
2023/03/12 09:04:15;;;;;;;;;;;2.70;99.90;;;;;;5024214;28;20146;-68
2023/03/12 09:06:42;;;;;;;;;;;2.80;99.90;;;;;;5022977;28;19929;-68
2023/03/12 09:09:09;;;;;;;;;;;3.20;99.90;;;;;;5023533;28;19981;-68
2023/03/12 09:11:38;;;;;;;;;;;3.00;99.90;;;;;;5023904;28;19944;-68
2023/03/12 09:14:05;;;;;;;;;;;3.00;99.90;;;;;;5042572;28;19976;-68
2023/03/12 09:16:31;;;;;;;;;;;3.00;99.90;;;;;;5042830;28;19952;-67
2023/03/12 09:19:00;;;;;;;;;;;3.00;99.90;;;;;;5042155;28;20209;-68
2023/03/12 09:21:26;;;;;;;;;;;3.00;99.90;;;;;;5023724;28;19928;-68
2023/03/12 09:23:53;;;;;;;;;;;3.00;99.90;;;;;;5023794;28;20125;-68
2023/03/12 09:26:20;;;;;;;;;;;2.90;99.90;;;;;;5022993;28;20029;-68
2023/03/12 09:28:46;;;;;;;;;;;2.90;99.90;;;;;;5023754;28;19968;-68
2023/03/12 09:31:13;;;;;;;;;;;2.90;99.90;;;;;;5026039;28;20266;-68
2023/03/12 09:33:40;;;;;;;;;;;2.90;99.90;;;;;;5042996;28;20156;-70
2023/03/12 09:36:08;;;;;;;;;;;3.00;99.90;;;;;;5046477;28;20232;-68
2023/03/12 09:38:36;;;;;;;;;;;3.00;99.90;;;;;;5047003;28;19928;-68
2023/03/12 09:41:04;;;;;;;;;;;3.00;99.90;;;;;;5048162;28;19921;-71
2023/03/12 09:43:36;;;;;;;;;;;3.00;99.90;;;;;;5044858;28;19956;-69
2023/03/12 09:46:04;;;;;;;;;;;3.00;99.90;;;;;;5046449;28;19971;-70
2023/03/12 09:48:33;;;;;;;;;;;3.10;99.90;;;;;;5044363;28;20168;-68
2023/03/12 09:51:01;;;;;;;;;;;3.10;99.90;;;;;;5042316;28;19921;-68
2023/03/12 09:53:31;;;;;;;;;;;3.20;99.90;;;;;;5038246;28;19949;-68
2023/03/12 09:55:59;;;;;;;;;;;3.20;99.90;;;;;;5026916;28;19996;-67
2023/03/12 09:58:27;;;;;;;;;;;3.40;99.90;;;;;;5036966;28;19933;-67
2023/03/12 10:00:57;;;;;;;;;;;3.40;99.90;;;;;;5037172;28;19943;-67
2023/03/12 10:03:28;;;;;;;;;;;3.40;99.90;;;;;;5026611;28;19929;-67
2023/03/12 10:06:02;;;;;;;;;;;3.50;99.90;;;;;;5026285;28;19922;-67
2023/03/12 10:08:33;;;;;;;;;;;3.50;99.90;;;;;;5026636;28;19960;-68
2023/03/12 10:11:02;;;;;;;;;;;3.50;99.90;;;;;;5027917;28;20120;-69
2023/03/12 10:13:34;;;;;;;;;;;3.50;99.90;;;;;;5045480;28;19948;-68
2023/03/12 10:16:04;;;;;;;;;;;3.50;99.90;;;;;;5039183;28;19949;-69
2023/03/12 10:18:38;;;;;;;;;;;3.50;99.90;;;;;;5042951;28;19935;-69
2023/03/12 10:21:19;;;;;;;;;;;3.50;99.90;;;;;;5046260;28;19992;-67
2023/03/12 10:23:54;;;;;;;;;;;3.60;99.90;;;;;;5044652;28;19929;-69
2023/03/12 10:26:24;;;;;;;;;;;3.70;99.90;;;;;;5045139;28;19993;-68
2023/03/12 10:28:53;;;;;;;;;;;3.80;99.90;;;;;;5045952;28;19967;-68
2023/03/12 10:31:23;;;;;;;;;;;3.80;99.90;;;;;;5046052;28;19984;-68
2023/03/12 10:33:51;;;;;;;;;;;3.90;99.90;;;;;;5045867;28;19927;-68
2023/03/12 10:36:19;;;;;;;;;;;3.90;99.90;;;;;;5044921;28;19925;-68
2023/03/12 10:38:48;;;;;;;;;;;4.00;99.90;;;;;;5045632;28;19921;-69
2023/03/12 10:41:17;;;;;;;;;;;4.00;99.90;;;;;;5045238;28;19921;-69
2023/03/12 10:43:44;;;;;;;;;;;4.10;99.90;;;;;;5031512;28;20019;-71
2023/03/12 10:46:29;;;;;;;;;;;4.10;99.90;;;;;;5025218;28;20356;-69
2023/03/12 10:49:11;;;;;;;;;;;4.10;99.90;;;;;;5025956;28;20189;-68
2023/03/12 10:51:52;;;;;;;;;;;3.90;99.90;;;;;;5025463;28;19930;-67
2023/03/12 10:54:22;;;;;;;;;;;4.00;99.90;;;;;;5025616;28;20189;-68
2023/03/12 10:56:50;;;;;;;;;;;4.00;99.90;;;;;;5036214;28;19921;-68
2023/03/12 10:59:20;;;;;;;;;;;4.10;99.90;;;;;;5023097;28;20117;-68
2023/03/12 11:01:48;;;;;;;;;;;4.10;99.90;;;;;;5025183;28;20256;-67
2023/03/12 11:04:16;;;;;;;;;;;4.10;99.90;;;;;;5033468;28;19921;-67
2023/03/12 11:06:43;;;;;;;;;;;4.20;99.90;;;;;;5044625;28;19921;-68
2023/03/12 11:09:16;;;;;;;;;;;4.20;99.90;;;;;;5042478;28;19960;-68
2023/03/12 11:11:46;;;;;;;;;;;4.10;99.90;;;;;;5041599;28;19988;-67
2023/03/12 11:14:17;;;;;;;;;;;4.00;99.90;;;;;;5044058;28;20456;-68
2023/03/12 11:16:44;;;;;;;;;;;4.00;99.90;;;;;;5044381;28;19922;-68
2023/03/12 11:19:12;;;;;;;;;;;4.00;99.90;;;;;;5045146;28;19943;-68
2023/03/12 11:21:39;;;;;;;;;;;3.90;99.90;;;;;;5035308;28;19956;-68
2023/03/12 11:24:08;;;;;;;;;;;3.90;99.90;;;;;;5041474;28;20220;-67
2023/03/12 11:26:37;;;;;;;;;;;4.00;99.90;;;;;;5031045;28;20167;-68
2023/03/12 11:29:06;;;;;;;;;;;4.00;99.90;;;;;;5044859;28;19921;-68
2023/03/12 11:31:35;;;;;;;;;;;4.00;99.90;;;;;;5045030;28;19929;-68
2023/03/12 11:34:04;;;;;;;;;;;4.10;99.90;;;;;;5044204;28;20233;-68
2023/03/12 11:36:39;;;;;;;;;;;4.20;99.90;;;;;;5044219;28;19921;-67
2023/03/12 11:39:09;;;;;;;;;;;4.20;99.90;;;;;;5044744;28;19927;-68
2023/03/12 11:41:42;;;;;;;;;;;4.30;99.90;;;;;;5033853;28;19944;-68
2023/03/12 11:44:24;;;;;;;;;;;4.40;99.90;;;;;;5041973;28;19984;-68
2023/03/12 11:46:59;;;;;;;;;;;4.40;99.90;;;;;;5043698;28;19927;-68
2023/03/12 11:49:33;;;;;;;;;;;4.40;99.90;;;;;;5044261;28;20227;-67
2023/03/12 11:52:03;;;;;;;;;;;4.30;99.90;;;;;;5024671;28;20201;-68
2023/03/12 11:54:41;;;;;;;;;;;4.40;99.90;;;;;;5030275;28;19948;-68
2023/03/12 11:57:11;;;;;;;;;;;4.30;99.90;;;;;;5044262;28;19959;-68
2023/03/12 11:59:43;;;;;;;;;;;4.40;99.90;;;;;;5044193;28;19992;-68
2023/03/12 12:02:20;;;;;;;;;;;4.40;99.90;;;;;;5044206;28;20212;-68
2023/03/12 12:05:00;;;;;;;;;;;4.50;99.90;;;;;;5024576;28;19928;-67
2023/03/12 12:07:33;;;;;;;;;;;4.50;99.90;;;;;;5024545;28;19921;-67
2023/03/12 12:10:03;;;;;;;;;;;4.50;99.90;;;;;;5025838;28;19988;-69
2023/03/12 12:12:36;;;;;;;;;;;4.50;99.90;;;;;;5043898;28;19921;-69
2023/03/12 12:15:07;;;;;;;;;;;4.40;99.90;;;;;;5043870;28;20180;-69
2023/03/12 12:17:40;;;;;;;;;;;4.40;99.90;;;;;;5043143;28;19955;-69
2023/03/12 12:20:17;;;;;;;;;;;4.40;99.90;;;;;;5027904;28;19989;-68
2023/03/12 12:22:51;;;;;;;;;;;4.40;99.90;;;;;;5028117;28;19944;-68
2023/03/12 12:25:28;;;;;;;;;;;4.40;99.90;;;;;;5043412;28;19921;-68
2023/03/12 12:27:59;;;;;;;;;;;4.40;99.90;;;;;;5043335;28;19960;-68
2023/03/12 12:30:29;;;;;;;;;;;4.40;99.90;;;;;;5039117;28;19953;-68
2023/03/12 12:33:06;;;;;;;;;;;4.50;99.90;;;;;;5023907;28;19971;-68
2023/03/12 12:35:35;;;;;;;;;;;4.40;99.90;;;;;;5023501;28;19928;-69
2023/03/12 12:38:05;;;;;;;;;;;4.50;99.90;;;;;;5023505;28;19984;-68
2023/03/12 12:40:36;;;;;;;;;;;4.50;99.90;;;;;;5023845;28;19980;-68
2023/03/12 12:43:06;;;;;;;;;;;4.50;99.90;;;;;;5041744;28;20267;-68
2023/03/12 12:45:33;;;;;;;;;;;4.50;99.90;;;;;;5043401;28;19928;-68
2023/03/12 12:48:03;;;;;;;;;;;4.60;99.90;;;;;;5043398;28;19952;-68
2023/03/12 12:50:33;;;;;;;;;;;4.60;99.90;;;;;;5043692;28;19925;-68
2023/03/12 12:53:02;;;;;;;;;;;4.60;99.90;;;;;;5032667;28;19925;-68
2023/03/12 12:55:31;;;;;;;;;;;4.60;99.90;;;;;;5026140;28;19929;-68
2023/03/12 12:57:59;;;;;;;;;;;4.60;99.90;;;;;;5042392;28;20344;-68
2023/03/12 13:00:37;;;;;;;;;;;4.70;99.90;;;;;;5043442;28;19921;-68
2023/03/12 13:03:05;;;;;;;;;;;4.70;99.90;;;;;;5039572;28;19975;-68
2023/03/12 13:05:44;;;;;;;;;;;4.70;99.90;;;;;;5036566;28;19985;-68
2023/03/12 13:08:30;;;;;;;;;;;4.80;99.90;;;;;;5038495;28;20217;-68
2023/03/12 13:10:57;;;;;;;;;;;4.80;99.90;;;;;;5036790;28;19953;-68
2023/03/12 13:13:24;;;;;;;;;;;4.90;99.90;;;;;;5047101;28;19953;-68
2023/03/12 13:15:50;;;;;;;;;;;4.90;99.90;;;;;;5042375;28;19964;-68
2023/03/12 13:18:23;;;;;;;;;;;5.00;99.90;;;;;;5040761;28;19992;-68
2023/03/12 13:21:04;;;;;;;;;;;5.00;99.90;;;;;;5031971;28;20148;-69
2023/03/12 13:23:35;;;;;;;;;;;5.00;99.90;;;;;;5027215;28;19921;-68
2023/03/12 13:26:04;;;;;;;;;;;5.10;99.90;;;;;;5026452;28;19930;-67
2023/03/12 13:28:45;;;;;;;;;;;5.20;99.90;;;;;;5045107;28;19963;-69
2023/03/12 13:31:32;;;;;;;;;;;5.20;99.90;;;;;;5044084;28;19953;-69
2023/03/12 13:34:08;;;;;;;;;;;5.30;99.90;;;;;;5030158;28;19921;-68
2023/03/12 13:36:36;;;;;;;;;;;5.50;99.90;;;;;;5031516;28;20219;-69
2023/03/12 13:39:19;;;;;;;;;;;5.60;99.90;;;;;;5046962;28;19925;-68
2023/03/12 13:41:48;;;;;;;;;;;5.70;99.90;;;;;;5046554;28;19922;-68
2023/03/12 13:44:32;;;;;;;;;;;5.80;99.90;;;;;;5040477;28;20145;-69
2023/03/12 13:47:00;;;;;;;;;;;5.80;99.90;;;;;;5046275;28;19928;-69
2023/03/12 13:49:34;;;;;;;;;;;5.90;99.90;;;;;;5045541;28;19921;-68
2023/03/12 13:52:19;;;;;;;;;;;6.00;99.90;;;;;;5046744;28;20112;-69
2023/03/12 13:54:47;;;;;;;;;;;6.00;99.90;;;;;;5035049;28;19960;-68
2023/03/12 13:57:24;;;;;;;;;;;6.10;99.90;;;;;;5040629;28;19928;-68
2023/03/12 13:59:52;;;;;;;;;;;6.20;99.90;;;;;;5040016;28;19921;-67
2023/03/12 14:02:22;;;;;;;;;;;6.30;99.90;;;;;;5034350;28;19989;-69
2023/03/12 14:04:50;;;;;;;;;;;6.40;99.90;;;;;;5043788;28;20379;-68
2023/03/12 14:07:37;;;;;;;;;;;6.50;99.90;;;;;;5042672;28;19934;-70
2023/03/12 14:10:09;;;;;;;;;;;6.60;99.90;;;;;;5040633;28;19929;-68
2023/03/12 14:12:38;;;;;;;;;;;6.70;99.90;;;;;;5046298;28;19929;-67
2023/03/12 14:15:10;;;;;;;;;;;6.90;99.90;;;;;;5030142;28;19992;-68
2023/03/12 14:17:37;;;;;;;;;;;7.00;99.90;;;;;;5045342;28;19959;-68
2023/03/12 14:20:11;;;;;;;;;;;7.20;99.90;;;;;;5045870;28;19996;-68
2023/03/12 14:22:38;;;;;;;;;;;7.30;99.90;;;;;;5046122;28;19921;-70
2023/03/12 14:25:12;;;;;;;;;;;7.30;99.90;;;;;;5045825;28;20120;-68
2023/03/12 14:27:39;;;;;;;;;;;7.30;99.90;;;;;;5045034;28;19988;-68
2023/03/12 14:30:10;;;;;;;;;;;7.40;99.90;;;;;;5040302;28;19921;-69
2023/03/12 14:32:38;;;;;;;;;;;7.40;99.90;;;;;;5042680;28;19997;-68